createdAt,value
2023-02-08T00:00:28.702Z,103374.91
2023-02-08T00:02:56.936Z,103371.31
2023-02-08T00:05:24.815Z,103364.03
2023-02-08T00:07:52.784Z,103358.59
2023-02-08T00:10:20.729Z,103361.31
2023-02-08T00:12:48.863Z,103364.03
2023-02-08T00:15:16.753Z,103369.47
2023-02-08T00:17:46.056Z,103367.75
2023-02-08T00:20:14.163Z,103366.91
2023-02-08T00:22:42.381Z,103363.34
2023-02-08T00:25:10.330Z,103357.06
2023-02-08T00:27:38.199Z,103352.47
2023-02-08T00:30:07.936Z,103356.06
2023-02-08T00:32:36.143Z,103345.34
2023-02-08T00:35:05.413Z,103347.91
2023-02-08T00:37:33.331Z,103349.91
2023-02-08T00:40:02.574Z,103347.03
2023-02-08T00:42:30.790Z,103350.63
2023-02-08T00:44:59.284Z,103340.03
2023-02-08T00:47:27.516Z,103342.63
2023-02-08T00:49:56.005Z,103339.91
2023-02-08T00:52:25.306Z,103344.34
2023-02-08T00:54:53.378Z,103345.34
2023-02-08T00:57:21.255Z,103343.47
2023-02-08T00:59:49.202Z,103345.34
2023-02-08T01:02:17.394Z,103345.34
2023-02-08T01:04:45.290Z,103348.03
2023-02-08T01:07:13.226Z,103341.75
2023-02-08T01:09:42.556Z,103343.63
2023-02-08T01:12:10.707Z,103342.75
2023-02-08T01:14:38.715Z,103341.75
2023-02-08T01:17:06.591Z,103335.47
2023-02-08T01:19:34.510Z,103330.03
2023-02-08T01:22:02.413Z,103345.34
2023-02-08T01:24:30.402Z,103335.47
2023-02-08T01:26:59.720Z,103344.47
2023-02-08T01:29:27.647Z,103337.31
2023-02-08T01:31:55.557Z,103345.47
2023-02-08T01:34:23.696Z,103343.63
2023-02-08T01:36:51.627Z,103339.19
2023-02-08T01:39:19.502Z,103345.34
2023-02-08T01:41:47.369Z,103335.78
2023-02-08T01:44:52.678Z,103341.75
2023-02-08T01:47:21.956Z,103333.59
2023-02-08T01:49:49.824Z,103328.31
2023-02-08T01:52:19.560Z,103328.31
2023-02-08T01:54:49.745Z,103316.19
2023-02-08T01:57:17.648Z,103320.03
2023-02-08T01:59:47.163Z,103314.34
2023-02-08T02:02:17.059Z,103320.03
2023-02-08T02:04:46.401Z,103319.31
2023-02-08T02:07:14.291Z,103322.88
2023-02-08T02:09:45.254Z,103323.06
2023-02-08T02:12:13.570Z,103314.72
2023-02-08T02:14:41.518Z,103315.75
2023-02-08T02:17:09.431Z,103310.31
2023-02-08T02:19:41.768Z,103308.44
2023-02-08T02:22:35.745Z,103311.16
2023-02-08T02:26:00.221Z,103313.88
2023-02-08T02:28:52.824Z,103305.50
2023-02-08T02:32:08.302Z,103314.91
2023-02-08T02:34:39.729Z,103301.75
2023-02-08T02:37:13.035Z,103307.59
2023-02-08T02:39:44.701Z,103319.78
2023-02-08T02:42:31.991Z,103246.53
2023-02-08T02:45:06.853Z,103318.78
2023-02-08T02:47:38.219Z,103308.75
2023-02-08T02:50:09.142Z,103271.28
2023-02-08T02:52:39.863Z,103306.75
2023-02-08T02:55:09.531Z,103296.72
2023-02-08T02:57:37.421Z,103301.16
2023-02-08T03:00:11.094Z,103308.63
2023-02-08T03:02:39.011Z,103304.88
2023-02-08T03:05:11.746Z,103311.16
2023-02-08T03:08:09.249Z,103305.06
2023-02-08T03:10:51.002Z,103299.44
2023-02-08T03:13:26.975Z,103284.38
2023-02-08T03:16:01.778Z,103304.06
2023-02-08T03:18:32.747Z,103303.19
2023-02-08T03:21:03.336Z,103307.59
2023-02-08T03:23:32.343Z,103294.19
2023-02-08T03:26:03.736Z,103302.16
2023-02-08T03:28:35.923Z,103296.72
2023-02-08T03:31:06.643Z,103298.63
2023-02-08T03:33:35.978Z,103291.28
2023-02-08T03:36:07.106Z,103293.88
2023-02-08T03:38:36.332Z,103284.78
2023-02-08T03:41:05.500Z,103284.47
2023-02-08T03:43:35.293Z,103297.59
2023-02-08T03:46:17.197Z,103295.03
2023-02-08T03:48:47.219Z,103299.44
2023-02-08T03:51:16.836Z,103303.00
2023-02-08T03:53:45.684Z,103303.19
2023-02-08T03:56:15.284Z,103305.72
2023-02-08T03:58:45.944Z,103308.63
2023-02-08T04:01:16.067Z,103306.75
2023-02-08T04:03:44.277Z,103303.19
2023-02-08T04:06:12.127Z,103297.75
2023-02-08T04:08:41.418Z,103304.06
2023-02-08T04:11:09.897Z,103304.06
2023-02-08T04:13:38.050Z,103302.16
2023-02-08T04:16:06.387Z,103299.63
2023-02-08T04:18:34.276Z,103296.03
2023-02-08T04:21:02.174Z,103292.47
2023-02-08T04:23:30.336Z,103285.31
2023-02-08T04:25:59.554Z,103300.63
2023-02-08T04:28:27.457Z,103297.03
2023-02-08T04:30:56.111Z,103307.91
2023-02-08T04:33:24.313Z,103300.94
2023-02-08T04:35:52.220Z,103311.47
2023-02-08T04:38:20.145Z,103315.34
2023-02-08T04:40:48.054Z,103307.91
2023-02-08T04:43:17.651Z,103306.03
2023-02-08T04:45:45.600Z,103306.03
2023-02-08T04:48:13.500Z,103298.03
2023-02-08T04:50:41.721Z,103302.47
2023-02-08T04:53:10.088Z,103299.75
2023-02-08T04:55:37.982Z,103297.03
2023-02-08T04:58:05.834Z,103297.03
2023-02-08T05:00:35.166Z,103297.03
2023-02-08T05:03:03.388Z,103292.47
2023-02-08T05:05:31.293Z,103302.34
2023-02-08T05:07:59.274Z,103310.63
2023-02-08T05:10:27.189Z,103308.75
2023-02-08T05:12:55.357Z,103308.75
2023-02-08T05:15:23.273Z,103306.03
2023-02-08T05:17:52.559Z,103307.91
2023-02-08T05:20:21.566Z,103302.47
2023-02-08T05:22:49.760Z,103311.47
2023-02-08T05:25:18.071Z,103307.91
2023-02-08T05:27:46.003Z,103299.75
2023-02-08T05:30:14.553Z,103305.91
2023-02-08T05:32:42.467Z,103298.75
2023-02-08T05:35:11.741Z,103293.31
2023-02-08T05:37:39.636Z,103302.34
2023-02-08T05:40:08.520Z,103308.63
2023-02-08T05:42:36.740Z,103306.03
2023-02-08T05:45:04.897Z,103304.19
2023-02-08T05:47:33.072Z,103308.75
2023-02-08T05:50:01.077Z,103305.19
2023-02-08T05:52:30.659Z,103316.91
2023-02-08T05:54:58.547Z,103307.03
2023-02-08T05:57:26.453Z,103314.06
2023-02-08T05:59:54.448Z,103307.75
2023-02-08T06:02:22.605Z,103309.63
2023-02-08T06:04:50.525Z,103314.91
2023-02-08T06:07:18.421Z,103311.47
2023-02-08T06:09:48.640Z,103303.19
2023-02-08T06:12:16.886Z,103300.63
2023-02-08T06:14:44.999Z,103306.75
2023-02-08T06:17:12.870Z,103304.06
2023-02-08T06:19:40.725Z,103306.59
2023-02-08T06:22:08.693Z,103315.59
2023-02-08T06:24:36.638Z,103311.16
2023-02-08T06:27:06.304Z,103299.31
2023-02-08T06:29:34.335Z,103306.44
2023-02-08T06:32:02.362Z,103313.88
2023-02-08T06:34:30.618Z,103311.34
2023-02-08T06:36:59.848Z,103315.75
2023-02-08T06:39:27.826Z,103318.44
2023-02-08T06:41:55.851Z,103322.03
2023-02-08T06:44:25.458Z,103323.88
2023-02-08T06:46:53.391Z,103323.75
2023-02-08T06:49:21.266Z,103315.59
2023-02-08T06:51:49.170Z,103311.16
2023-02-08T06:54:17.425Z,103302.88
2023-02-08T06:56:45.327Z,103309.03
2023-02-08T06:59:13.199Z,103309.03
2023-02-08T07:01:42.461Z,103313.41
2023-02-08T07:04:10.663Z,103312.59
2023-02-08T07:06:38.577Z,103307.31
2023-02-08T07:09:06.486Z,103299.44
2023-02-08T07:11:34.381Z,103302.16
2023-02-08T07:14:02.626Z,103296.03
2023-02-08T07:16:30.627Z,103306.91
2023-02-08T07:18:59.947Z,103306.03
2023-02-08T07:21:27.866Z,103298.91
2023-02-08T07:23:56.076Z,103302.47
2023-02-08T07:26:23.986Z,103293.63
2023-02-08T07:28:51.915Z,103291.63
2023-02-08T07:31:19.849Z,103294.31
2023-02-08T07:33:48.012Z,103292.47
2023-02-08T07:36:17.318Z,103292.47
2023-02-08T07:38:45.197Z,103296.91
2023-02-08T07:41:14.460Z,103294.47
2023-02-08T07:43:43.011Z,103290.75
2023-02-08T07:46:11.418Z,103285.84
2023-02-08T07:48:40.466Z,103281.47
2023-02-08T07:51:08.504Z,103284.19
2023-02-08T07:53:38.173Z,103279.75
2023-02-08T07:56:06.393Z,103281.59
2023-02-08T07:58:34.317Z,103284.31
2023-02-08T08:01:12.531Z,103282.47
2023-02-08T08:03:49.432Z,103282.59
2023-02-08T08:06:17.328Z,103284.31
2023-02-08T08:08:47.722Z,103280.59
2023-02-08T08:11:15.786Z,103267.50
2023-02-08T08:13:44.001Z,103287.44
2023-02-08T08:16:11.977Z,103281.84
2023-02-08T08:18:39.991Z,103287.28
2023-02-08T08:21:07.891Z,103281.00
2023-02-08T08:23:36.372Z,103288.16
2023-02-08T08:26:09.774Z,103292.72
2023-02-08T08:28:37.717Z,103295.44
2023-02-08T08:31:10.488Z,103297.28
2023-02-08T08:33:38.683Z,103291.88
2023-02-08T08:36:07.036Z,103297.28
2023-02-08T08:38:35.033Z,103292.72
2023-02-08T08:41:02.952Z,103281.84
2023-02-08T08:43:32.671Z,103285.56
2023-02-08T08:46:00.641Z,103288.28
2023-02-08T08:48:28.632Z,103286.56
2023-02-08T08:50:56.504Z,103279.44
2023-02-08T08:53:24.723Z,103280.28
2023-02-08T08:55:52.846Z,103275.84
2023-02-08T08:58:20.735Z,103277.56
2023-02-08T09:00:50.026Z,103272.13
2023-02-08T09:03:18.233Z,103272.13
2023-02-08T09:05:46.190Z,103275.00
2023-02-08T09:08:14.147Z,103270.41
2023-02-08T09:10:42.210Z,103279.44
2023-02-08T09:13:10.609Z,103276.72
2023-02-08T09:15:39.942Z,103274.00
2023-02-08T09:18:09.243Z,103282.16
2023-02-08T09:20:38.893Z,103282.16
2023-02-08T09:23:07.251Z,103277.56
2023-02-08T09:25:35.180Z,103273.13
2023-02-08T09:28:03.084Z,103269.56
2023-02-08T09:30:31.000Z,103274.00
2023-02-08T09:32:59.191Z,103277.56
2023-02-08T09:35:28.520Z,103267.56
2023-02-08T09:37:58.170Z,103266.69
2023-02-08T09:40:27.515Z,103273.13
2023-02-08T09:42:59.243Z,103201.25
2023-02-08T09:45:54.332Z,103257.47
2023-02-08T09:48:27.907Z,103266.84
2023-02-08T09:50:57.687Z,103266.84
2023-02-08T09:53:28.681Z,103267.72
2023-02-08T09:55:59.486Z,103265.84
2023-02-08T09:58:31.984Z,103259.56
2023-02-08T10:00:59.895Z,103263.13
2023-02-08T10:03:35.662Z,103251.59
2023-02-08T10:06:05.956Z,103257.69
2023-02-08T10:08:35.584Z,103265.00
2023-02-08T10:11:10.795Z,103262.28
2023-02-08T10:14:00.928Z,103276.72
2023-02-08T10:16:38.989Z,103268.56
2023-02-08T10:19:09.653Z,103258.69
2023-02-08T10:21:46.875Z,103264.00
2023-02-08T10:24:26.029Z,103256.84
2023-02-08T10:26:56.460Z,103256.69
2023-02-08T10:29:55.063Z,103263.13
2023-02-08T10:32:35.600Z,103234.09
2023-02-08T10:35:04.398Z,103244.59
2023-02-08T10:37:34.939Z,103261.28
2023-02-08T10:40:17.520Z,103260.41
2023-02-08T10:42:47.701Z,103266.69
2023-02-08T10:45:24.395Z,103259.56
2023-02-08T10:47:54.260Z,103261.28
2023-02-08T10:50:23.835Z,103255.84
2023-02-08T10:52:53.407Z,103246.69
2023-02-08T10:55:22.112Z,103253.13
2023-02-08T10:57:52.429Z,103254.84
2023-02-08T11:00:21.387Z,103234.91
2023-02-08T11:02:51.246Z,103248.56
2023-02-08T11:05:19.868Z,103233.44
2023-02-08T11:07:47.735Z,103240.41
2023-02-08T11:10:27.068Z,103239.41
2023-02-08T11:12:56.223Z,103236.69
2023-02-08T11:15:24.979Z,103232.09
2023-02-08T11:17:56.624Z,103234.81
2023-02-08T11:20:26.432Z,103226.69
2023-02-08T11:22:54.630Z,103229.38
2023-02-08T11:25:37.305Z,103230.25
2023-02-08T11:28:05.572Z,103227.53
2023-02-08T11:30:34.263Z,103214.81
2023-02-08T11:33:20.016Z,103217.66
2023-02-08T11:35:54.841Z,103201.22
2023-02-08T11:38:27.523Z,103209.53
2023-02-08T11:40:58.820Z,103216.81
2023-02-08T11:43:28.241Z,103194.06
2023-02-08T11:45:56.589Z,103188.47
2023-02-08T11:48:26.618Z,103186.59
2023-02-08T11:50:55.627Z,103186.59
2023-02-08T11:53:27.991Z,103197.47
2023-02-08T11:56:16.746Z,103192.91
2023-02-08T11:59:02.236Z,103183.03
2023-02-08T12:01:31.318Z,103174.88
2023-02-08T12:04:00.777Z,103172.16
2023-02-08T12:06:50.626Z,103160.31
2023-02-08T12:09:24.851Z,103161.16
2023-02-08T12:11:55.828Z,102967.19
2023-02-08T12:14:32.483Z,103158.44
2023-02-08T12:17:12.510Z,103154.00
2023-02-08T12:20:06.890Z,103160.63
2023-02-08T12:22:35.819Z,103153.88
2023-02-08T12:25:11.641Z,103155.72
2023-02-08T12:27:43.853Z,103145.00
2023-02-08T12:30:16.459Z,103149.28
2023-02-08T12:32:56.335Z,103149.44
2023-02-08T12:36:01.445Z,103149.28
2023-02-08T12:38:57.875Z,103140.13
2023-02-08T12:41:30.963Z,103129.75
2023-02-08T12:44:03.877Z,103118.78
2023-02-08T12:46:51.585Z,102986.28
2023-02-08T12:49:29.615Z,103138.44
2023-02-08T12:52:00.385Z,103129.28
2023-02-08T12:54:31.878Z,103132.84
2023-02-08T12:57:02.495Z,103130.13
2023-02-08T12:59:34.513Z,103052.03
2023-02-08T13:02:04.511Z,103112.59
2023-02-08T13:04:34.231Z,103112.81
2023-02-08T13:07:04.409Z,103032.47
2023-02-08T13:09:39.928Z,103106.34
2023-02-08T13:12:09.661Z,103081.47
2023-02-08T13:14:40.017Z,103101.31
2023-02-08T13:17:13.515Z,103098.06
2023-02-08T13:19:58.985Z,103100.63
2023-02-08T13:22:27.527Z,103079.19
2023-02-08T13:25:07.148Z,103084.47
2023-02-08T13:27:35.664Z,103081.63
2023-02-08T13:30:07.786Z,103086.19
2023-02-08T13:32:37.017Z,103047.19
2023-02-08T13:35:07.099Z,103064.44
2023-02-08T13:37:35.952Z,103052.34
2023-02-08T13:40:05.987Z,103061.88
2023-02-08T13:42:36.729Z,103054.25
2023-02-08T13:45:09.513Z,103052.72
2023-02-08T13:47:42.365Z,103051.41
2023-02-08T13:50:41.261Z,103032.13
2023-02-08T13:53:09.512Z,103053.97
2023-02-08T13:55:56.663Z,103042.38
2023-02-08T13:58:30.154Z,103032.06
2023-02-08T14:01:18.693Z,103030.53
2023-02-08T14:03:47.094Z,103040.06
2023-02-08T14:06:20.195Z,103032.78
2023-02-08T14:08:53.877Z,103031.06
2023-02-08T14:11:29.080Z,103028.91
2023-02-08T14:13:59.800Z,103021.91
2023-02-08T14:16:33.319Z,102996.41
2023-02-08T14:19:01.986Z,103002.75
2023-02-08T14:21:34.918Z,102998.00
2023-02-08T14:24:05.000Z,103009.41
2023-02-08T14:26:33.007Z,103005.84
2023-02-08T14:29:02.201Z,103006.69
2023-02-08T14:31:44.444Z,102986.59
2023-02-08T14:34:25.371Z,102989.88
2023-02-08T14:37:04.275Z,102988.66
2023-02-08T14:39:33.445Z,102978.44
2023-02-08T14:42:03.914Z,102989.69
2023-02-08T14:44:57.379Z,102984.25
2023-02-08T14:47:55.031Z,102979.66
2023-02-08T14:50:27.501Z,102969.81
2023-02-08T14:52:59.711Z,102978.81
2023-02-08T14:55:28.882Z,102978.81
2023-02-08T14:57:57.421Z,102933.16
2023-02-08T15:00:28.157Z,102973.56
2023-02-08T15:02:57.792Z,102968.13
2023-02-08T15:05:26.392Z,102964.56
2023-02-08T15:07:54.472Z,102956.41
2023-02-08T15:10:22.726Z,102944.28
2023-02-08T15:12:52.304Z,102956.22
2023-02-08T15:15:27.892Z,102953.69
2023-02-08T15:17:57.271Z,102955.38
2023-02-08T15:20:26.229Z,102949.94
2023-02-08T15:23:01.007Z,102950.97
2023-02-08T15:25:29.978Z,102953.69
2023-02-08T15:27:59.031Z,102952.84
2023-02-08T15:30:33.130Z,102940.09
2023-02-08T15:33:03.369Z,102938.25
2023-02-08T15:35:33.018Z,102943.69
2023-02-08T15:38:00.885Z,102938.25
2023-02-08T15:40:29.526Z,102939.06
2023-02-08T15:43:04.196Z,102931.09
2023-02-08T15:45:32.088Z,102932.97
2023-02-08T15:48:02.733Z,102933.81
2023-02-08T15:50:30.728Z,102905.69
2023-02-08T15:52:59.800Z,102928.38
2023-02-08T15:55:28.371Z,102923.09
2023-02-08T15:57:57.026Z,102919.38
2023-02-08T16:00:26.142Z,102923.81
2023-02-08T16:02:55.351Z,102915.81
2023-02-08T16:05:26.413Z,102907.66
2023-02-08T16:07:55.548Z,102909.19
2023-02-08T16:10:26.304Z,102906.66
2023-02-08T16:12:56.394Z,102893.72
2023-02-08T16:15:38.004Z,102900.00
2023-02-08T16:18:05.964Z,102862.88
2023-02-08T16:20:35.899Z,102896.44
2023-02-08T16:23:04.552Z,102893.72
2023-02-08T16:25:38.073Z,102897.16
2023-02-08T16:28:07.146Z,102898.00
2023-02-08T16:30:35.216Z,102895.59
2023-02-08T16:33:09.734Z,102897.50
2023-02-08T16:35:39.608Z,102891.88
2023-02-08T16:38:10.128Z,102899.00
2023-02-08T16:40:52.486Z,102896.44
2023-02-08T16:43:25.515Z,102896.63
2023-02-08T16:46:25.302Z,102892.06
2023-02-08T16:48:54.558Z,102889.50
2023-02-08T16:51:25.223Z,102893.22
2023-02-08T16:53:55.419Z,102888.63
2023-02-08T16:56:23.493Z,102898.66
2023-02-08T16:58:51.417Z,102887.94
2023-02-08T17:01:19.400Z,102894.94
2023-02-08T17:03:50.108Z,102888.63
2023-02-08T17:06:24.975Z,102882.50
2023-02-08T17:08:52.954Z,102877.94
2023-02-08T17:11:20.940Z,102875.22
2023-02-08T17:13:49.149Z,102876.06
2023-02-08T17:16:19.105Z,102872.50
2023-02-08T17:18:47.236Z,102872.81
2023-02-08T17:21:15.182Z,102867.19
2023-02-08T17:23:44.995Z,102864.47
2023-02-08T17:26:14.866Z,102856.66
2023-02-08T17:28:43.054Z,102855.50
2023-02-08T17:31:11.796Z,102860.94
2023-02-08T17:33:40.713Z,102859.03
2023-02-08T17:36:09.374Z,102865.34
2023-02-08T17:38:39.182Z,102863.34
2023-02-08T17:41:08.595Z,102860.47
2023-02-08T17:43:37.254Z,102866.56
2023-02-08T17:46:10.209Z,102855.88
2023-02-08T17:48:38.298Z,102852.81
2023-02-08T17:51:09.959Z,102848.25
2023-02-08T17:53:40.828Z,102851.66
2023-02-08T17:56:11.198Z,102845.19
2023-02-08T17:58:39.125Z,102835.31
2023-02-08T18:01:07.276Z,102848.59
2023-02-08T18:03:35.775Z,102847.59
2023-02-08T18:06:03.751Z,102848.44
2023-02-08T18:08:31.628Z,102843.84
2023-02-08T18:11:04.106Z,102846.72
2023-02-08T18:13:34.072Z,102834.16
2023-02-08T18:16:08.039Z,102838.56
2023-02-08T18:18:35.962Z,102835.88
2023-02-08T18:21:03.953Z,102836.53
2023-02-08T18:23:32.793Z,102840.09
2023-02-08T18:26:07.350Z,102835.50
2023-02-08T18:28:36.691Z,102832.63
2023-02-08T18:31:05.139Z,102839.78
2023-02-08T18:33:33.497Z,102838.94
2023-02-08T18:36:01.442Z,102843.34
2023-02-08T18:38:29.333Z,102840.44
2023-02-08T18:40:57.253Z,102836.91
2023-02-08T18:43:25.542Z,102843.16
2023-02-08T18:46:02.310Z,102841.31
2023-02-08T18:48:30.382Z,102837.56
2023-02-08T18:50:58.351Z,102850.16
2023-02-08T18:53:27.284Z,102847.44
2023-02-08T18:55:55.483Z,102839.28
2023-02-08T18:58:23.438Z,102843.69
2023-02-08T19:00:51.837Z,102845.41
2023-02-08T19:03:21.657Z,102839.13
2023-02-08T19:05:49.927Z,102832.66
2023-02-08T19:08:17.848Z,102836.22
2023-02-08T19:10:45.757Z,102835.19
2023-02-08T19:13:13.898Z,102831.63
2023-02-08T19:15:42.221Z,102830.63
2023-02-08T19:18:10.405Z,102841.34
2023-02-08T19:20:39.769Z,102833.34
2023-02-08T19:23:07.960Z,102835.91
2023-02-08T19:25:37.733Z,102834.88
2023-02-08T19:28:06.014Z,102833.00
2023-02-08T19:30:33.959Z,102825.69
2023-02-08T19:33:02.429Z,102821.28
2023-02-08T19:35:30.386Z,102826.72
2023-02-08T19:37:59.740Z,102829.44
2023-02-08T19:40:27.678Z,102824.84
2023-02-08T19:42:55.851Z,102830.28
2023-02-08T19:45:25.105Z,102820.44
2023-02-08T19:47:54.991Z,102819.75
2023-02-08T19:50:22.892Z,102816.34
2023-02-08T19:52:51.062Z,102814.66
2023-02-08T19:55:20.373Z,102813.81
2023-02-08T19:57:48.245Z,102811.94
2023-02-08T20:00:23.403Z,102815.66
2023-02-08T20:02:52.071Z,102813.97
2023-02-08T20:05:19.956Z,102813.97
2023-02-08T20:07:47.853Z,102807.00
2023-02-08T20:10:15.935Z,102813.28
2023-02-08T20:12:45.458Z,102810.75
2023-02-08T20:15:13.344Z,102812.59
2023-02-08T20:17:42.423Z,102817.19
2023-02-08T20:20:11.463Z,102820.75
2023-02-08T20:22:39.629Z,102828.06
2023-02-08T20:25:09.883Z,102824.50
2023-02-08T20:27:37.822Z,102826.19
2023-02-08T20:30:12.182Z,102822.78
2023-02-08T20:32:40.893Z,102821.06
2023-02-08T20:35:08.926Z,102819.41
2023-02-08T20:37:36.819Z,102820.41
2023-02-08T20:40:05.325Z,102819.56
2023-02-08T20:42:33.492Z,102823.13
2023-02-08T20:45:01.419Z,102810.03
2023-02-08T20:47:33.844Z,102821.41
2023-02-08T20:50:16.858Z,102818.88
2023-02-08T20:52:46.839Z,102829.56
2023-02-08T20:55:14.839Z,102828.88
2023-02-08T20:57:42.827Z,102823.78
2023-02-08T21:00:12.302Z,102842.47
2023-02-08T21:02:42.760Z,102840.78
2023-02-08T21:05:10.770Z,102832.94
2023-02-08T21:07:40.338Z,102836.38
2023-02-08T21:10:09.069Z,102826.84
2023-02-08T21:12:37.675Z,102832.78
2023-02-08T21:15:07.578Z,102825.50
2023-02-08T21:17:35.611Z,102830.94
2023-02-08T21:20:05.200Z,102834.31
2023-02-08T21:22:33.535Z,102829.91
2023-02-08T21:25:01.493Z,102833.66
2023-02-08T21:27:29.750Z,102827.34
2023-02-08T21:29:57.820Z,102821.91
2023-02-08T21:32:26.441Z,102819.38
2023-02-08T21:34:54.476Z,102815.78
2023-02-08T21:37:23.741Z,102820.38
2023-02-08T21:39:51.643Z,102819.53
2023-02-08T21:42:19.807Z,102810.53
2023-02-08T21:44:47.685Z,102821.22
2023-02-08T21:47:15.617Z,102810.53
2023-02-08T21:50:00.814Z,102806.13
2023-02-08T21:52:47.688Z,102814.28
2023-02-08T21:55:15.752Z,102818.84
2023-02-08T21:57:43.653Z,102815.28
2023-02-08T22:00:13.039Z,102820.88
2023-02-08T22:02:41.059Z,102814.44
2023-02-08T22:05:26.828Z,102807.28
2023-02-08T22:07:57.411Z,102804.56
2023-02-08T22:10:26.535Z,102805.59
2023-02-08T22:12:55.163Z,102801.00
2023-02-08T22:15:24.041Z,102805.59
2023-02-08T22:17:53.570Z,102799.13
2023-02-08T22:20:21.549Z,102794.72
2023-02-08T22:22:52.620Z,102813.72
2023-02-08T22:25:23.621Z,102804.69
2023-02-08T22:27:51.598Z,102801.16
2023-02-08T22:30:19.865Z,102794.88
2023-02-08T22:32:48.044Z,102809.31
2023-02-08T22:35:16.382Z,102810.13
2023-02-08T22:37:44.302Z,102805.75
2023-02-08T22:40:12.973Z,102802.88
2023-02-08T22:42:42.489Z,102795.72
2023-02-08T22:45:10.883Z,102797.59
2023-02-08T22:47:38.830Z,102800.31
2023-02-08T22:50:07.454Z,102810.31
2023-02-08T22:52:35.690Z,102808.47
2023-02-08T22:55:04.185Z,102801.31
2023-02-08T22:57:32.313Z,102810.31
2023-02-08T23:00:01.677Z,102796.75
2023-02-08T23:02:30.032Z,102801.16
2023-02-08T23:04:57.983Z,102805.75
2023-02-08T23:07:25.908Z,102796.75
2023-02-08T23:09:53.816Z,102798.59
2023-02-08T23:12:21.960Z,102804.19
2023-02-08T23:14:51.077Z,102805.03
2023-02-08T23:17:20.353Z,102797.75
2023-02-08T23:19:48.222Z,102790.75
2023-02-08T23:22:16.490Z,102786.03
2023-02-08T23:24:44.391Z,102783.81
2023-02-08T23:27:12.525Z,102790.59
2023-02-08T23:29:40.408Z,102794.34
2023-02-08T23:32:08.393Z,102797.03
2023-02-08T23:34:37.673Z,102792.81
2023-02-08T23:37:05.674Z,102793.47
2023-02-08T23:39:34.162Z,102781.78
2023-02-08T23:42:02.077Z,102790.75
2023-02-08T23:44:30.224Z,102790.75
2023-02-08T23:46:58.198Z,102786.38
2023-02-08T23:49:26.163Z,102787.69
2023-02-08T23:51:55.959Z,102790.09
2023-02-08T23:54:24.158Z,102785.69
2023-02-08T23:56:53.053Z,102787.53
2023-02-08T23:59:20.982Z,102787.53
